createdAt,value
2022-12-23T00:00:45.391Z,26.80
2022-12-23T00:03:12.717Z,26.80
2022-12-23T00:05:40.850Z,25.75
2022-12-23T00:08:08.636Z,28.60
2022-12-23T00:10:39.898Z,27.25
2022-12-23T00:13:26.354Z,23.67
2022-12-23T00:16:08.484Z,23.98
2022-12-23T00:18:35.860Z,26.55
2022-12-23T00:21:09.330Z,24.48
2022-12-23T00:23:39.945Z,24.75
2022-12-23T00:26:07.925Z,23.17
2022-12-23T00:28:35.007Z,22.35
2022-12-23T00:31:07.329Z,24.08
2022-12-23T00:33:43.184Z,23.67
2022-12-23T00:36:16.850Z,31.42
2022-12-23T00:39:02.565Z,27.67
2022-12-23T00:41:49.059Z,24.05
2022-12-23T00:44:16.197Z,24.58
2022-12-23T00:46:43.402Z,22.42
2022-12-23T00:49:31.789Z,23.90
2022-12-23T00:51:59.291Z,23.58
2022-12-23T00:54:26.687Z,23.27
2022-12-23T00:56:54.218Z,22.77
2022-12-23T00:59:21.419Z,22.80
2022-12-23T01:02:07.127Z,23.35
2022-12-23T01:04:53.067Z,22.42
2022-12-23T01:07:21.103Z,23.17
2022-12-23T01:09:48.315Z,23.02
2022-12-23T01:12:15.459Z,23.40
2022-12-23T01:14:42.536Z,23.15
2022-12-23T01:17:09.840Z,22.00
2022-12-23T01:19:37.127Z,24.92
2022-12-23T01:22:04.297Z,24.00
2022-12-23T01:24:32.474Z,25.58
2022-12-23T01:26:59.990Z,22.25
2022-12-23T01:29:27.807Z,18.83
2022-12-23T01:31:54.971Z,19.33
2022-12-23T01:34:22.071Z,19.80
2022-12-23T01:36:49.122Z,20.95
2022-12-23T01:39:16.217Z,18.33
2022-12-23T01:42:02.181Z,19.58
2022-12-23T01:44:54.003Z,24.08
2022-12-23T01:47:30.343Z,17.92
2022-12-23T01:50:06.066Z,18.08
2022-12-23T01:52:38.987Z,19.15
2022-12-23T01:55:06.788Z,20.33
2022-12-23T01:57:36.918Z,18.20
2022-12-23T02:00:25.372Z,17.90
2022-12-23T02:03:11.152Z,17.35
2022-12-23T02:05:38.750Z,17.27
2022-12-23T02:08:25.048Z,18.05
2022-12-23T02:11:10.849Z,18.60
2022-12-23T02:14:27.178Z,19.00
2022-12-23T02:17:06.133Z,18.67
2022-12-23T02:19:33.187Z,18.10
2022-12-23T02:23:02.062Z,16.20
2022-12-23T02:25:38.178Z,15.75
2022-12-23T02:28:23.320Z,16.35
2022-12-23T02:31:02.187Z,17.77
2022-12-23T02:34:02.233Z,15.43
2022-12-23T02:36:39.219Z,16.23
2022-12-23T02:39:14.828Z,17.92
2022-12-23T02:41:48.001Z,16.25
2022-12-23T02:44:23.713Z,15.75
2022-12-23T02:46:57.330Z,16.17
2022-12-23T02:49:30.978Z,16.80
2022-12-23T02:52:03.850Z,18.23
2022-12-23T02:54:35.444Z,16.92
2022-12-23T02:57:06.378Z,20.02
2022-12-23T02:59:45.856Z,17.08
2022-12-23T03:02:13.010Z,16.07
2022-12-23T03:04:42.470Z,18.80
2022-12-23T03:07:31.610Z,21.63
2022-12-23T03:10:13.762Z,19.20
2022-12-23T03:13:02.126Z,20.90
2022-12-23T03:15:47.646Z,19.35
2022-12-23T03:18:39.685Z,18.90
2022-12-23T03:21:13.223Z,20.27
2022-12-23T03:23:55.512Z,18.92
2022-12-23T03:26:31.247Z,18.42
2022-12-23T03:29:09.776Z,19.75
2022-12-23T03:31:38.322Z,19.13
2022-12-23T03:34:24.521Z,20.67
2022-12-23T03:36:56.320Z,20.73
2022-12-23T03:39:30.057Z,19.75
2022-12-23T03:42:02.341Z,18.70
2022-12-23T03:44:35.252Z,20.20
2022-12-23T03:47:08.249Z,18.33
2022-12-23T03:49:41.966Z,20.77
2022-12-23T03:52:20.885Z,21.40
2022-12-23T03:54:58.164Z,20.02
2022-12-23T03:57:48.958Z,21.98
2022-12-23T04:00:16.185Z,21.55
2022-12-23T04:03:00.285Z,20.55
2022-12-23T04:05:35.308Z,23.80
2022-12-23T04:08:05.157Z,23.50
2022-12-23T04:10:32.442Z,23.63
2022-12-23T04:12:59.818Z,24.70
2022-12-23T04:15:28.111Z,20.98
2022-12-23T04:17:57.992Z,24.25
2022-12-23T04:20:25.666Z,26.40
2022-12-23T04:22:52.713Z,26.80
2022-12-23T04:25:19.835Z,25.70
2022-12-23T04:27:46.949Z,24.85
2022-12-23T04:30:14.359Z,28.33
2022-12-23T04:32:42.657Z,27.45
2022-12-23T04:35:10.574Z,26.73
2022-12-23T04:37:38.489Z,26.05
2022-12-23T04:40:06.362Z,28.42
2022-12-23T04:42:33.476Z,30.27
2022-12-23T04:45:00.589Z,30.58
2022-12-23T04:47:27.973Z,26.98
2022-12-23T04:49:54.972Z,25.58
2022-12-23T04:52:22.306Z,30.45
2022-12-23T04:54:49.406Z,35.92
2022-12-23T04:57:16.602Z,35.00
2022-12-23T04:59:43.685Z,31.08
2022-12-23T05:02:11.397Z,30.77
2022-12-23T05:04:38.677Z,28.95
2022-12-23T05:07:05.752Z,30.20
2022-12-23T05:09:32.854Z,27.23
2022-12-23T05:11:59.933Z,33.28
2022-12-23T05:14:26.985Z,33.13
2022-12-23T05:16:54.135Z,30.30
2022-12-23T05:19:21.275Z,31.50
2022-12-23T05:21:48.380Z,30.60
2022-12-23T05:24:15.463Z,32.28
2022-12-23T05:26:47.629Z,31.33
2022-12-23T05:29:15.886Z,31.15
2022-12-23T05:31:43.374Z,30.15
2022-12-23T05:34:10.642Z,31.45
2022-12-23T05:36:37.715Z,27.27
2022-12-23T05:39:04.928Z,28.33
2022-12-23T05:41:31.967Z,34.33
2022-12-23T05:43:59.002Z,29.70
2022-12-23T05:46:27.140Z,27.00
2022-12-23T05:48:54.735Z,29.02
2022-12-23T05:51:21.820Z,30.08
2022-12-23T05:53:48.942Z,29.30
2022-12-23T05:56:16.005Z,28.65
2022-12-23T05:58:43.097Z,28.73
2022-12-23T06:01:10.309Z,28.33
2022-12-23T06:03:37.592Z,26.83
2022-12-23T06:06:04.981Z,30.08
2022-12-23T06:08:32.263Z,28.58
2022-12-23T06:11:00.065Z,29.60
2022-12-23T06:13:27.137Z,33.92
2022-12-23T06:15:54.131Z,28.38
2022-12-23T06:18:21.152Z,30.48
2022-12-23T06:20:48.900Z,26.55
2022-12-23T06:23:16.079Z,27.17
2022-12-23T06:25:43.246Z,28.65
2022-12-23T06:28:10.357Z,29.23
2022-12-23T06:30:37.325Z,30.83
2022-12-23T06:33:04.393Z,30.38
2022-12-23T06:35:31.559Z,30.88
2022-12-23T06:37:58.647Z,29.02
2022-12-23T06:40:25.721Z,27.95
2022-12-23T06:42:52.838Z,31.23
2022-12-23T06:45:19.993Z,32.03
2022-12-23T06:47:47.139Z,27.42
2022-12-23T06:50:14.183Z,26.20
2022-12-23T06:52:41.259Z,26.70
2022-12-23T06:55:08.581Z,25.48
2022-12-23T06:57:35.675Z,27.40
2022-12-23T07:00:05.051Z,28.65
2022-12-23T07:02:32.284Z,28.20
2022-12-23T07:04:59.341Z,26.70
2022-12-23T07:07:26.451Z,25.58
2022-12-23T07:09:53.503Z,27.15
2022-12-23T07:12:20.721Z,24.58
2022-12-23T07:14:47.811Z,24.88
2022-12-23T07:17:14.964Z,29.80
2022-12-23T07:19:42.016Z,26.98
2022-12-23T07:22:10.475Z,29.40
2022-12-23T07:24:37.989Z,28.05
2022-12-23T07:27:05.192Z,29.77
2022-12-23T07:29:32.258Z,33.08
2022-12-23T07:31:59.553Z,31.08
2022-12-23T07:34:26.684Z,30.70
2022-12-23T07:36:54.103Z,30.33
2022-12-23T07:39:21.289Z,26.73
2022-12-23T07:41:48.328Z,27.45
2022-12-23T07:44:15.577Z,31.85
2022-12-23T07:46:42.989Z,28.63
2022-12-23T07:49:10.367Z,28.00
2022-12-23T07:51:37.428Z,25.67
2022-12-23T07:54:04.502Z,27.15
2022-12-23T07:56:31.620Z,28.92
2022-12-23T07:58:58.790Z,31.45
2022-12-23T08:01:25.934Z,26.98
2022-12-23T08:03:53.210Z,27.92
2022-12-23T08:06:20.424Z,26.20
2022-12-23T08:08:47.478Z,26.40
2022-12-23T08:11:15.960Z,26.88
2022-12-23T08:13:45.091Z,28.00
2022-12-23T08:16:12.998Z,28.00
2022-12-23T08:18:42.096Z,34.45
2022-12-23T08:21:13.749Z,32.83
2022-12-23T08:23:42.295Z,35.03
2022-12-23T08:26:21.598Z,35.83
2022-12-23T08:28:49.757Z,37.90
2022-12-23T08:31:25.754Z,37.00
2022-12-23T08:33:55.514Z,38.60
2022-12-23T08:36:28.033Z,37.95
2022-12-23T08:38:56.390Z,38.47
2022-12-23T08:41:27.276Z,40.58
2022-12-23T08:43:54.585Z,41.03
2022-12-23T08:46:22.428Z,38.80
2022-12-23T08:48:50.203Z,38.58
2022-12-23T08:51:19.253Z,38.03
2022-12-23T08:53:47.111Z,35.67
2022-12-23T08:56:20.320Z,40.45
2022-12-23T08:58:48.988Z,39.05
2022-12-23T09:01:17.848Z,34.15
2022-12-23T09:03:45.641Z,34.78
2022-12-23T09:06:15.622Z,32.15
2022-12-23T09:08:43.357Z,26.88
2022-12-23T09:11:11.944Z,28.85
2022-12-23T09:13:39.298Z,29.10
2022-12-23T09:16:07.959Z,29.30
2022-12-23T09:18:36.037Z,31.00
2022-12-23T09:21:08.344Z,28.60
2022-12-23T09:23:35.514Z,26.85
2022-12-23T09:26:06.139Z,24.15
2022-12-23T09:28:33.277Z,29.50
2022-12-23T09:31:10.232Z,31.60
2022-12-23T09:33:37.508Z,34.92
2022-12-23T09:36:05.536Z,30.52
2022-12-23T09:38:33.579Z,30.30
2022-12-23T09:41:15.319Z,31.10
2022-12-23T09:44:15.036Z,24.58
2022-12-23T09:46:54.317Z,24.75
2022-12-23T09:49:22.893Z,25.77
2022-12-23T09:51:56.018Z,21.52
2022-12-23T09:54:26.312Z,25.52
2022-12-23T09:59:26.661Z,26.02
2022-12-23T10:02:09.204Z,26.27
2022-12-23T10:05:00.568Z,24.15
2022-12-23T10:07:44.410Z,25.45
2022-12-23T10:10:57.543Z,24.05
2022-12-23T10:13:29.901Z,19.40
2022-12-23T10:16:04.505Z,19.10
2022-12-23T10:18:46.472Z,21.08
2022-12-23T10:21:25.323Z,19.65
2022-12-23T10:23:54.411Z,20.73
2022-12-23T10:26:30.169Z,25.70
2022-12-23T10:29:19.682Z,22.00
2022-12-23T10:31:53.631Z,20.70
2022-12-23T10:34:36.603Z,23.50
2022-12-23T10:37:17.585Z,21.33
2022-12-23T10:40:02.470Z,22.10
2022-12-23T10:43:00.588Z,20.17
2022-12-23T10:45:27.574Z,23.70
2022-12-23T10:48:24.007Z,19.67
2022-12-23T10:51:01.444Z,21.08
2022-12-23T10:53:40.782Z,26.92
2022-12-23T10:56:08.806Z,21.08
2022-12-23T10:58:41.969Z,25.27
2022-12-23T11:01:17.544Z,24.33
2022-12-23T11:04:00.320Z,26.10
2022-12-23T11:06:34.885Z,26.13
2022-12-23T11:09:05.535Z,23.42
2022-12-23T11:12:02.216Z,23.83
2022-12-23T11:14:50.021Z,25.40
2022-12-23T11:17:23.700Z,29.23
2022-12-23T11:20:15.363Z,26.63
2022-12-23T11:22:51.610Z,26.02
2022-12-23T11:25:30.609Z,23.45
2022-12-23T11:28:03.271Z,24.98
2022-12-23T11:30:33.306Z,28.15
2022-12-23T11:33:00.479Z,36.67
2022-12-23T11:35:31.812Z,29.15
2022-12-23T11:38:01.123Z,27.48
2022-12-23T11:40:34.180Z,26.95
2022-12-23T11:43:04.256Z,25.55
2022-12-23T11:45:36.432Z,28.75
2022-12-23T11:48:06.139Z,26.58
2022-12-23T11:50:37.503Z,27.95
2022-12-23T11:53:13.674Z,23.88
2022-12-23T11:55:48.523Z,24.58
2022-12-23T11:58:19.956Z,28.75
2022-12-23T12:00:58.976Z,25.67
2022-12-23T12:03:36.172Z,22.42
2022-12-23T12:06:06.195Z,21.27
2022-12-23T12:08:38.631Z,21.50
2022-12-23T12:11:17.127Z,23.60
2022-12-23T12:13:48.181Z,22.10
2022-12-23T12:16:30.749Z,26.77
2022-12-23T12:19:04.920Z,28.83
2022-12-23T12:21:37.591Z,24.23
2022-12-23T12:24:19.316Z,21.40
2022-12-23T12:26:52.639Z,32.47
2022-12-23T12:29:43.894Z,21.63
2022-12-23T12:32:33.519Z,27.83
2022-12-23T12:35:17.248Z,27.55
2022-12-23T12:37:53.907Z,20.60
2022-12-23T12:40:26.530Z,28.92
2022-12-23T12:43:19.291Z,24.02
2022-12-23T12:45:53.409Z,26.85
2022-12-23T12:48:34.770Z,26.15
2022-12-23T12:51:12.836Z,22.90
2022-12-23T12:54:09.413Z,18.80
2022-12-23T12:56:39.604Z,27.40
2022-12-23T12:59:06.868Z,25.75
2022-12-23T13:01:48.462Z,27.45
2022-12-23T13:04:21.648Z,26.48
2022-12-23T13:07:02.169Z,24.27
2022-12-23T13:09:37.214Z,24.30
2022-12-23T13:12:50.119Z,28.08
2022-12-23T13:15:38.750Z,26.50
2022-12-23T13:18:16.450Z,27.38
2022-12-23T13:20:51.525Z,30.80
2022-12-23T13:23:44.463Z,30.23
2022-12-23T13:26:23.847Z,27.70
2022-12-23T13:29:14.794Z,28.10
2022-12-23T13:31:48.932Z,26.55
2022-12-23T13:34:40.152Z,31.33
2022-12-23T13:37:27.884Z,32.83
2022-12-23T13:40:14.675Z,26.83
2022-12-23T13:42:49.246Z,29.00
2022-12-23T13:45:18.616Z,32.40
2022-12-23T13:47:48.471Z,33.88
2022-12-23T13:50:33.591Z,37.25
2022-12-23T13:53:06.388Z,42.65
2022-12-23T13:56:12.126Z,32.22
2022-12-23T13:58:40.813Z,44.17
2022-12-23T14:01:08.458Z,42.45
2022-12-23T14:03:38.926Z,29.35
2022-12-23T14:06:22.328Z,29.13
2022-12-23T14:08:51.078Z,29.75
2022-12-23T14:11:33.592Z,41.90
2022-12-23T14:14:05.001Z,40.13
2022-12-23T14:16:50.926Z,34.78
2022-12-23T14:19:42.788Z,28.95
2022-12-23T14:22:39.509Z,39.58
2022-12-23T14:25:21.859Z,45.30
2022-12-23T14:28:07.608Z,38.55
2022-12-23T14:30:40.465Z,44.55
2022-12-23T14:33:28.068Z,44.03
2022-12-23T14:35:56.548Z,41.92
2022-12-23T14:38:29.413Z,52.50
2022-12-23T14:41:20.017Z,49.05
2022-12-23T14:43:47.070Z,49.70
2022-12-23T14:46:35.917Z,47.05
2022-12-23T14:49:36.821Z,34.78
2022-12-23T14:51:51.706Z,33.47
2022-12-23T14:54:38.430Z,42.72
2022-12-23T14:57:17.182Z,37.25
2022-12-23T15:00:07.467Z,36.15
2022-12-23T15:05:04.960Z,49.60
2022-12-23T15:07:39.123Z,32.83
2022-12-23T15:10:06.681Z,41.35
2022-12-23T15:12:36.963Z,59.13
2022-12-23T15:17:35.984Z,36.53
2022-12-23T15:20:08.344Z,32.10
2022-12-23T15:22:36.671Z,47.15
2022-12-23T15:25:05.672Z,43.17
2022-12-23T15:27:36.115Z,36.20
2022-12-23T15:30:03.583Z,32.72
2022-12-23T15:32:30.785Z,36.83
2022-12-23T15:35:06.627Z,36.80
2022-12-23T15:37:34.904Z,33.85
2022-12-23T15:40:12.535Z,33.28
2022-12-23T15:42:47.745Z,39.88
2022-12-23T15:45:37.412Z,48.78
2022-12-23T15:48:07.330Z,33.05
2022-12-23T15:50:42.015Z,31.88
2022-12-23T15:53:13.190Z,33.10
2022-12-23T15:55:41.549Z,29.45
2022-12-23T15:58:15.759Z,27.85
2022-12-23T16:00:51.075Z,41.03
2022-12-23T16:03:28.119Z,34.95
2022-12-23T16:05:55.612Z,32.83
2022-12-23T16:08:29.584Z,41.92
2022-12-23T16:11:16.252Z,28.35
2022-12-23T16:14:22.321Z,33.00
2022-12-23T16:16:52.621Z,30.38
2022-12-23T16:19:48.845Z,26.95
2022-12-23T16:22:36.422Z,35.05
2022-12-23T16:25:16.531Z,29.80
2022-12-23T16:28:07.919Z,31.40
2022-12-23T16:30:38.510Z,28.65
2022-12-23T16:33:22.765Z,37.80
2022-12-23T16:35:49.878Z,33.13
2022-12-23T16:38:18.416Z,34.58
2022-12-23T16:40:48.079Z,36.83
2022-12-23T16:43:16.348Z,35.00
2022-12-23T16:45:45.108Z,37.70
2022-12-23T16:48:41.447Z,32.85
2022-12-23T16:51:14.517Z,33.83
2022-12-23T16:53:41.673Z,31.08
2022-12-23T16:56:16.957Z,33.13
2022-12-23T16:58:44.991Z,35.03
2022-12-23T17:01:37.025Z,32.15
2022-12-23T17:04:05.020Z,29.73
2022-12-23T17:06:32.201Z,31.67
2022-12-23T17:08:59.443Z,32.90
2022-12-23T17:11:43.766Z,35.20
2022-12-23T17:14:17.490Z,31.70
2022-12-23T17:16:46.134Z,27.63
2022-12-23T17:19:13.793Z,30.73
2022-12-23T17:21:43.329Z,31.45
2022-12-23T17:24:17.017Z,31.70
2022-12-23T17:26:44.260Z,31.77
2022-12-23T17:29:12.987Z,32.53
2022-12-23T17:31:41.883Z,34.97
2022-12-23T17:34:17.539Z,32.00
2022-12-23T17:36:50.029Z,32.00
2022-12-23T17:39:18.735Z,37.22
2022-12-23T17:41:46.293Z,32.10
2022-12-23T17:44:17.508Z,31.35
2022-12-23T17:46:45.825Z,34.05
2022-12-23T17:49:13.114Z,32.88
2022-12-23T17:51:41.823Z,38.88
2022-12-23T17:54:24.409Z,40.88
2022-12-23T17:56:52.929Z,31.58
2022-12-23T17:59:20.713Z,35.58
2022-12-23T18:01:48.032Z,34.05
2022-12-23T18:04:15.641Z,33.05
2022-12-23T18:06:42.788Z,30.75
2022-12-23T18:09:09.913Z,49.65
2022-12-23T18:11:44.012Z,36.25
2022-12-23T18:14:28.198Z,34.90
2022-12-23T18:16:55.486Z,33.75
2022-12-23T18:19:22.670Z,36.90
2022-12-23T18:21:51.567Z,31.83
2022-12-23T18:24:19.232Z,34.65
2022-12-23T18:26:46.356Z,34.22
2022-12-23T18:29:13.638Z,31.48
2022-12-23T18:31:52.105Z,30.75
2022-12-23T18:34:20.653Z,33.90
2022-12-23T18:36:48.704Z,29.50
2022-12-23T18:39:15.929Z,33.45
2022-12-23T18:41:43.017Z,34.33
2022-12-23T18:44:21.265Z,37.38
2022-12-23T18:46:49.359Z,45.67
2022-12-23T18:49:16.693Z,44.22
2022-12-23T18:51:43.837Z,37.83
2022-12-23T18:54:17.254Z,45.65
2022-12-23T18:56:44.727Z,37.88
2022-12-23T18:59:27.156Z,47.08
2022-12-23T19:01:56.969Z,38.65
2022-12-23T19:04:24.282Z,41.03
2022-12-23T19:06:51.525Z,43.55
2022-12-23T19:09:21.584Z,33.70
2022-12-23T19:11:51.180Z,32.58
2022-12-23T19:14:18.615Z,33.63
2022-12-23T19:16:51.211Z,49.63
2022-12-23T19:19:19.674Z,45.53
2022-12-23T19:21:46.889Z,56.10
2022-12-23T19:24:14.252Z,32.83
2022-12-23T19:26:41.399Z,57.92
2022-12-23T19:29:09.030Z,39.10
2022-12-23T19:31:36.119Z,35.10
2022-12-23T19:34:03.422Z,33.80
2022-12-23T19:36:31.270Z,43.80
2022-12-23T19:38:58.718Z,35.22
2022-12-23T19:41:25.947Z,36.13
2022-12-23T19:43:53.028Z,39.47
2022-12-23T19:46:20.190Z,28.70
2022-12-23T19:48:52.587Z,28.30
2022-12-23T19:51:20.522Z,50.42
2022-12-23T19:53:50.432Z,44.58
2022-12-23T19:56:21.377Z,44.50
2022-12-23T19:58:49.585Z,34.47
2022-12-23T20:01:25.656Z,43.47
2022-12-23T20:03:55.287Z,52.13
2022-12-23T20:06:23.925Z,34.80
2022-12-23T20:08:55.042Z,40.75
2022-12-23T20:11:26.999Z,25.02
2022-12-23T20:13:57.427Z,42.63
2022-12-23T20:16:24.627Z,38.45
2022-12-23T20:18:52.155Z,31.10
2022-12-23T20:21:19.802Z,25.33
2022-12-23T20:23:46.831Z,41.83
2022-12-23T20:26:15.067Z,33.25
2022-12-23T20:28:42.566Z,31.40
2022-12-23T20:31:22.659Z,29.77
2022-12-23T20:33:51.512Z,45.60
2022-12-23T20:36:22.223Z,37.15
2022-12-23T20:38:50.613Z,33.63
2022-12-23T20:41:21.383Z,28.95
2022-12-23T20:44:23.382Z,25.35
2022-12-23T20:46:36.310Z,25.33
2022-12-23T20:49:04.105Z,32.85
2022-12-23T20:51:31.209Z,31.17
2022-12-23T20:54:01.469Z,32.10
2022-12-23T20:59:01.754Z,29.02
2022-12-23T21:01:38.363Z,33.95
2022-12-23T21:04:09.194Z,29.95
2022-12-23T21:06:36.676Z,26.48
2022-12-23T21:09:06.058Z,29.05
2022-12-23T21:11:37.303Z,23.90
2022-12-23T21:14:07.217Z,33.33
2022-12-23T21:16:36.099Z,35.55
2022-12-23T21:19:03.912Z,37.10
2022-12-23T21:21:32.141Z,32.75
2022-12-23T21:24:01.756Z,34.65
2022-12-23T21:26:30.850Z,35.30
2022-12-23T21:29:00.224Z,23.80
2022-12-23T21:31:28.908Z,30.80
2022-12-23T21:33:56.533Z,33.63
2022-12-23T21:36:26.689Z,39.20
2022-12-23T21:41:23.976Z,36.47
2022-12-23T21:43:51.811Z,39.50
2022-12-23T21:46:22.491Z,32.45
2022-12-23T21:48:50.672Z,36.55
2022-12-23T21:51:39.116Z,40.25
2022-12-23T21:54:08.652Z,38.70
2022-12-23T21:56:35.960Z,34.20
2022-12-23T21:59:06.616Z,31.55
2022-12-23T22:01:34.085Z,33.47
2022-12-23T22:04:01.334Z,41.70
2022-12-23T22:06:34.067Z,37.20
2022-12-23T22:09:01.147Z,31.27
2022-12-23T22:11:31.280Z,38.17
2022-12-23T22:14:00.166Z,34.97
2022-12-23T22:16:29.335Z,32.47
2022-12-23T22:18:58.194Z,34.03
2022-12-23T22:21:27.433Z,35.45
2022-12-23T22:23:55.411Z,31.83
2022-12-23T22:26:26.274Z,50.35
2022-12-23T22:28:55.577Z,35.40
2022-12-23T22:31:44.298Z,42.58
2022-12-23T22:34:18.254Z,38.72
2022-12-23T22:36:45.841Z,34.55
2022-12-23T22:39:21.028Z,36.55
2022-12-23T22:41:50.448Z,38.42
2022-12-23T22:44:18.004Z,38.35
2022-12-23T22:46:45.448Z,31.17
2022-12-23T22:49:13.813Z,37.45
2022-12-23T22:51:41.898Z,25.70
2022-12-23T22:54:09.192Z,29.20
2022-12-23T22:56:36.673Z,30.40
2022-12-23T22:59:05.067Z,29.90
2022-12-23T23:01:34.739Z,26.38
2022-12-23T23:04:03.468Z,36.28
2022-12-23T23:06:38.816Z,30.10
2022-12-23T23:09:08.788Z,38.72
2022-12-23T23:11:36.260Z,32.55
2022-12-23T23:14:04.179Z,30.05
2022-12-23T23:16:32.007Z,35.35
2022-12-23T23:19:00.115Z,37.25
2022-12-23T23:21:27.187Z,32.65
2022-12-23T23:23:54.277Z,38.10
2022-12-23T23:26:22.602Z,35.72
2022-12-23T23:28:49.704Z,28.42
2022-12-23T23:31:41.032Z,31.33
2022-12-23T23:34:03.872Z,30.50
2022-12-23T23:36:30.983Z,26.85
2022-12-23T23:38:59.087Z,31.92
2022-12-23T23:41:26.203Z,25.80
2022-12-23T23:43:53.366Z,30.27
2022-12-23T23:46:20.555Z,36.97
2022-12-23T23:48:47.816Z,29.15
2022-12-23T23:51:15.239Z,21.08
2022-12-23T23:53:42.322Z,30.23
2022-12-23T23:56:09.705Z,24.48
2022-12-23T23:58:37.491Z,24.30
